CLW weather

Clearwater Air Park
Clearwater, Florida, United States

Public forecast

Using degrees Fahrenheit for public forecast. Weather courtesy of forecast.io.

METAR (pilot weather report)

Retrieved 2019/06/20 15:35 UTC (0 seconds ago):

KCLW 201535Z AUTO 23009G14KT 10SM SCT028 30/22 A3004 RMK AO2

TAF (pilot weather forecast)

Closest forecast is St Petersburg Clearwater International Airport, 5.5 nm (10.2 km) SE. Retrieved 2019/06/20 12:27 UTC (3 hours ago):

TAF KPIE 201123Z 2012/2112 23007KT P6SM FEW020 SCT200 FM201500 24012KT P6SM SCT030 SCT200 FM210300 22006KT P6SM FEW200